Zrenjanin, Serbia
Current Conditions -  °F | °C
As of 10:00 AM on Monday 20 Oct 2014 (Local Time) from LYBT Reporting Station
Clear Clear  
Wind Chill: 57°   Ceiling: Unl
Heat Index: 57°   Visibility: 4mi
Dew Point: 55°   Wind: 7mph
Humidity: 94%   Direction: 220°SW
Pressure: 30.18"   Gusts: NA
Location:  45.37°N, 20.4°E
Report Text: LYBT 200800Z 22006KT 190V250 6000 NSC 14/13 Q1022 NOSIG
Loading
Personal Weather Stations






























Interactive Weather Map
Tropical Storm Tracking
New forecast layout! Learn more

10-Day Weather Forecast

Advertisements
Track Severe Weather on mobile